Briefing drone pour Saint-ferreol-d'auroure

Rechercher une autre localisation

Conditions de vol :


Nous sommes le : Mercredi 30 septembre 2020
Il est 21:25 UTC (23:25 LT)

Lever de soleil : 05:13 UTC (07:13 LT)
Coucher de soleil : 17:51 UTC (19:51 LT)

Météo

L'essentiel des conditions de vol

VIGILANCE MÉTÉO FRANCE - Haute-Loire (43)
Pas de vigilances particulieres
METAR de LFMH
LFMH 302100Z AUTO 00000KT CAVOK 10/10 Q1012

Date d'émission: 30/09/2020
Heure d'émission: 21:00 UTC
Vent: Calme
Visibilité horizontale: > 10 km
Plafond : Plafond et visibilité OK (CAVOK)
Température: 10 °C
Point de rosée: 10 °C
Humidité: 100%
Pression (QNH): 1012 hPa
TAF de LFMH
LFMH 301901Z 3019/0115 CNL

Conditions prévues :

Heure d'émission : Bulletin éffectué le 30 à 19:00 UTC
Prévision : Valide du 30 a 19:00 UTC au 01 a 15:00 UTC
Nuages : à 0ft (0 m)
WEBCAM POUR SAINT-FERREOL-D'AUROURE

Réglementation

Voler en sécurité

CARTES AERONAUTIQUE 1/500.000
CARTES VAC (LFMH)
SUP AIP




Chargement des AIP...
NOTAM (SAINT-FERREOL-D'AUROURE + Terrain à proximité / FIR )




Chargement des NOTAMS...
CONTACT PREFECTURE 43


Avertissement : Les données mises à disposition sont indicatives. Oxygène Drone ne pourra être tenu responsable de dégâts causés aux biens et aux personnes.